createdAt,value
2023-05-15T00:00:39.631Z,13.50
2023-05-15T00:03:07.468Z,13.40
2023-05-15T00:05:36.729Z,13.40
2023-05-15T00:08:04.657Z,13.40
2023-05-15T00:10:32.463Z,13.40
2023-05-15T00:13:00.193Z,13.30
2023-05-15T00:15:28.056Z,13.30
2023-05-15T00:17:55.896Z,13.30
2023-05-15T00:20:23.845Z,13.30
2023-05-15T00:22:53.298Z,13.30
2023-05-15T00:25:21.165Z,13.20
2023-05-15T00:27:48.902Z,13.20
2023-05-15T00:30:16.810Z,13.20
2023-05-15T00:32:44.634Z,13.20
2023-05-15T00:35:12.407Z,13.10
2023-05-15T00:37:40.110Z,13.10
2023-05-15T00:40:11.857Z,13.10
2023-05-15T00:42:40.468Z,13.10
2023-05-15T00:45:11.358Z,13.00
2023-05-15T00:47:41.234Z,13.00
2023-05-15T00:50:10.564Z,13.00
2023-05-15T00:52:38.927Z,12.90
2023-05-15T00:55:07.489Z,12.90
2023-05-15T00:57:36.937Z,12.90
2023-05-15T01:00:10.315Z,12.90
2023-05-15T01:02:38.375Z,12.80
2023-05-15T01:05:07.593Z,12.80
2023-05-15T01:07:41.843Z,12.70
2023-05-15T01:10:10.461Z,12.70
2023-05-15T01:12:43.181Z,12.70
2023-05-15T01:15:12.233Z,12.70
2023-05-15T01:17:40.225Z,12.60
2023-05-15T01:20:12.099Z,12.60
2023-05-15T01:22:52.703Z,12.60
2023-05-15T01:25:49.527Z,12.60
2023-05-15T01:28:23.591Z,12.50
2023-05-15T01:30:53.816Z,12.50
2023-05-15T01:33:26.763Z,12.50
2023-05-15T01:36:00.214Z,12.50
2023-05-15T01:38:34.604Z,12.50
2023-05-15T01:41:06.227Z,12.40
2023-05-15T01:43:38.124Z,12.40
2023-05-15T01:46:08.258Z,12.40
2023-05-15T01:48:37.320Z,12.40
2023-05-15T01:51:08.734Z,12.40
2023-05-15T01:53:37.522Z,12.40
2023-05-15T01:56:08.059Z,12.40
2023-05-15T01:58:39.301Z,12.30
2023-05-15T02:01:07.541Z,12.30
2023-05-15T02:03:35.465Z,12.30
2023-05-15T02:06:05.959Z,12.30
2023-05-15T02:08:35.452Z,12.30
2023-05-15T02:11:04.369Z,12.30
2023-05-15T02:13:32.941Z,12.30
2023-05-15T02:16:02.185Z,12.20
2023-05-15T02:18:30.107Z,12.20
2023-05-15T02:20:57.972Z,12.20
2023-05-15T02:23:25.666Z,12.20
2023-05-15T02:26:08.947Z,12.20
2023-05-15T02:28:44.757Z,12.10
2023-05-15T02:31:24.398Z,12.20
2023-05-15T02:34:00.055Z,12.10
2023-05-15T02:36:33.326Z,12.10
2023-05-15T02:39:02.512Z,12.10
2023-05-15T02:41:32.412Z,12.10
2023-05-15T02:44:01.936Z,12.00
2023-05-15T02:46:31.514Z,12.00
2023-05-15T02:48:59.799Z,12.00
2023-05-15T02:51:27.974Z,11.90
2023-05-15T02:53:56.596Z,11.90
2023-05-15T02:56:24.274Z,11.80
2023-05-15T02:58:52.031Z,11.80
2023-05-15T03:01:19.768Z,11.80
2023-05-15T03:03:49.215Z,11.70
2023-05-15T03:06:18.607Z,11.80
2023-05-15T03:08:46.448Z,11.70
2023-05-15T03:11:14.349Z,11.70
2023-05-15T03:13:42.648Z,11.60
2023-05-15T03:16:11.133Z,11.60
2023-05-15T03:18:38.884Z,11.70
2023-05-15T03:21:08.130Z,11.60
2023-05-15T03:23:37.766Z,11.60
2023-05-15T03:26:05.821Z,11.60
2023-05-15T03:28:33.566Z,11.50
2023-05-15T03:31:01.280Z,11.60
2023-05-15T03:33:28.979Z,11.50
2023-05-15T03:35:56.760Z,11.50
2023-05-15T03:38:26.056Z,11.50
2023-05-15T03:40:53.725Z,11.50
2023-05-15T03:43:21.595Z,11.50
2023-05-15T03:45:49.383Z,11.50
2023-05-15T03:48:17.104Z,11.50
2023-05-15T03:50:46.373Z,11.50
2023-05-15T03:53:14.167Z,11.50
2023-05-15T03:55:43.245Z,11.50
2023-05-15T03:58:11.381Z,11.50
2023-05-15T04:00:39.085Z,11.50
2023-05-15T04:03:06.838Z,11.50
2023-05-15T04:05:34.897Z,11.50
2023-05-15T04:08:02.908Z,11.60
2023-05-15T04:10:32.234Z,11.60
2023-05-15T04:13:01.291Z,11.60
2023-05-15T04:15:29.423Z,11.60
2023-05-15T04:17:57.210Z,11.70
2023-05-15T04:20:25.953Z,11.70
2023-05-15T04:22:54.105Z,11.70
2023-05-15T04:25:22.447Z,11.70
2023-05-15T04:27:50.323Z,11.80
2023-05-15T04:30:19.733Z,11.80
2023-05-15T04:32:47.522Z,11.90
2023-05-15T04:35:15.627Z,11.90
2023-05-15T04:37:45.394Z,11.90
2023-05-15T04:40:15.059Z,12.00
2023-05-15T04:42:43.212Z,12.00
2023-05-15T04:45:11.360Z,12.10
2023-05-15T04:47:40.558Z,12.10
2023-05-15T04:50:09.081Z,12.20
2023-05-15T04:52:36.841Z,12.30
2023-05-15T04:55:05.293Z,12.30
2023-05-15T04:57:33.056Z,12.40
2023-05-15T05:00:00.886Z,12.40
2023-05-15T05:02:28.687Z,12.50
2023-05-15T05:04:57.878Z,12.50
2023-05-15T05:07:25.831Z,12.60
2023-05-15T05:09:53.563Z,12.60
2023-05-15T05:12:21.308Z,12.70
2023-05-15T05:14:49.381Z,12.70
2023-05-15T05:17:17.264Z,12.80
2023-05-15T05:19:45.132Z,12.90
2023-05-15T05:22:14.256Z,13.00
2023-05-15T05:24:41.958Z,13.10
2023-05-15T05:27:09.650Z,13.10
2023-05-15T05:29:37.479Z,13.20
2023-05-15T05:32:05.785Z,13.30
2023-05-15T05:34:33.501Z,13.40
2023-05-15T05:37:01.240Z,13.50
2023-05-15T05:39:30.383Z,13.60
2023-05-15T05:41:58.085Z,13.70
2023-05-15T05:44:26.270Z,13.80
2023-05-15T05:46:53.998Z,13.90
2023-05-15T05:49:21.749Z,14.00
2023-05-15T05:51:49.498Z,14.10
2023-05-15T05:54:18.166Z,14.20
2023-05-15T05:56:47.284Z,14.30
2023-05-15T05:59:15.033Z,14.40
2023-05-15T06:01:43.123Z,14.50
2023-05-15T06:04:11.270Z,14.50
2023-05-15T06:06:39.230Z,14.60
2023-05-15T06:09:06.968Z,14.70
2023-05-15T06:11:35.007Z,14.80
2023-05-15T06:14:04.066Z,14.90
2023-05-15T06:16:31.950Z,14.90
2023-05-15T06:18:59.761Z,14.90
2023-05-15T06:21:27.472Z,15.00
2023-05-15T06:23:55.574Z,15.10
2023-05-15T06:26:23.688Z,15.10
2023-05-15T06:28:51.579Z,15.10
2023-05-15T06:31:20.803Z,15.20
2023-05-15T06:33:48.720Z,15.30
2023-05-15T06:36:17.711Z,15.30
2023-05-15T06:38:45.512Z,15.40
2023-05-15T06:41:13.354Z,15.50
2023-05-15T06:43:41.013Z,15.50
2023-05-15T06:46:08.908Z,15.60
2023-05-15T06:48:38.435Z,15.60
2023-05-15T06:51:06.316Z,15.70
2023-05-15T06:53:34.106Z,15.80
2023-05-15T06:56:01.787Z,15.90
2023-05-15T06:58:29.622Z,16.00
2023-05-15T07:00:59.319Z,16.10
2023-05-15T07:03:27.205Z,16.20
2023-05-15T07:05:56.437Z,16.30
2023-05-15T07:08:24.247Z,16.30
2023-05-15T07:10:52.111Z,16.40
2023-05-15T07:13:20.896Z,16.50
2023-05-15T07:15:48.884Z,16.60
2023-05-15T07:18:16.632Z,16.70
2023-05-15T07:20:44.425Z,16.80
2023-05-15T07:23:13.892Z,16.80
2023-05-15T07:25:41.581Z,16.90
2023-05-15T07:28:09.276Z,17.00
2023-05-15T07:30:37.084Z,17.00
2023-05-15T07:33:05.036Z,17.10
2023-05-15T07:35:32.843Z,17.20
2023-05-15T07:38:01.409Z,17.20
2023-05-15T07:40:30.940Z,17.30
2023-05-15T07:42:58.789Z,17.40
2023-05-15T07:45:26.738Z,17.50
2023-05-15T07:47:54.778Z,17.50
2023-05-15T07:50:22.582Z,17.60
2023-05-15T07:52:50.343Z,17.60
2023-05-15T07:55:18.107Z,17.70
2023-05-15T07:57:53.418Z,17.70
2023-05-15T08:00:22.224Z,17.80
2023-05-15T08:02:50.143Z,17.80
2023-05-15T08:05:18.247Z,17.90
2023-05-15T08:07:46.553Z,17.90
2023-05-15T08:10:14.427Z,18.00
2023-05-15T08:12:46.325Z,18.00
2023-05-15T08:15:15.768Z,18.10
2023-05-15T08:17:44.022Z,18.20
2023-05-15T08:20:12.986Z,18.20
2023-05-15T08:22:40.767Z,18.30
2023-05-15T08:25:09.726Z,18.40
2023-05-15T08:27:37.433Z,18.40
2023-05-15T08:30:06.130Z,18.50
2023-05-15T08:32:35.342Z,18.50
2023-05-15T08:35:03.067Z,18.60
2023-05-15T08:37:30.916Z,18.60
2023-05-15T08:39:58.784Z,18.70
2023-05-15T08:42:34.468Z,18.70
2023-05-15T08:45:04.586Z,18.80
2023-05-15T08:47:38.668Z,18.80
2023-05-15T08:50:10.558Z,18.90
2023-05-15T08:52:38.466Z,18.90
2023-05-15T08:55:06.929Z,19.00
2023-05-15T08:57:36.089Z,19.10
2023-05-15T09:00:08.928Z,19.20
2023-05-15T09:02:38.822Z,19.30
2023-05-15T09:05:07.480Z,19.40
2023-05-15T09:07:36.325Z,19.40
2023-05-15T09:10:05.570Z,19.50
2023-05-15T09:12:35.723Z,19.60
2023-05-15T09:15:11.474Z,19.70
2023-05-15T09:17:43.115Z,19.70
2023-05-15T09:20:26.709Z,19.80
2023-05-15T09:22:54.759Z,19.90
2023-05-15T09:25:39.359Z,19.90
2023-05-15T09:28:08.000Z,20.00
2023-05-15T09:30:38.911Z,20.10
2023-05-15T09:33:08.379Z,20.20
2023-05-15T09:35:38.546Z,20.30
2023-05-15T09:38:12.493Z,20.30
2023-05-15T09:40:41.222Z,20.40
2023-05-15T09:43:11.276Z,20.40
2023-05-15T09:45:39.042Z,20.40
2023-05-15T09:48:11.884Z,20.50
2023-05-15T09:50:40.974Z,20.60
2023-05-15T09:53:13.043Z,20.70
2023-05-15T09:55:43.422Z,20.80
2023-05-15T09:58:12.910Z,20.80
2023-05-15T10:00:48.051Z,20.90
2023-05-15T10:03:19.587Z,21.00
2023-05-15T10:05:47.917Z,21.10
2023-05-15T10:08:16.172Z,21.20
2023-05-15T10:10:44.466Z,21.20
2023-05-15T10:13:12.521Z,21.30
2023-05-15T10:15:40.963Z,21.40
2023-05-15T10:18:09.354Z,21.40
2023-05-15T10:20:39.638Z,21.50
2023-05-15T10:23:13.046Z,21.50
2023-05-15T10:25:46.746Z,21.50
2023-05-15T10:28:15.808Z,21.50
2023-05-15T10:30:43.899Z,21.40
2023-05-15T10:33:14.048Z,21.50
2023-05-15T10:35:44.184Z,21.60
2023-05-15T10:38:13.771Z,21.60
2023-05-15T10:40:42.570Z,21.70
2023-05-15T10:43:11.469Z,21.80
2023-05-15T10:45:40.259Z,22.00
2023-05-15T10:48:12.269Z,22.10
2023-05-15T10:50:40.477Z,22.10
2023-05-15T10:53:10.519Z,22.20
2023-05-15T10:55:38.641Z,22.10
2023-05-15T10:58:10.353Z,22.10
2023-05-15T11:00:43.749Z,21.90
2023-05-15T11:03:15.333Z,21.80
2023-05-15T11:06:08.630Z,21.50
2023-05-15T11:08:38.374Z,21.40
2023-05-15T11:11:06.165Z,21.30
2023-05-15T11:14:13.411Z,21.30
2023-05-15T11:16:59.866Z,21.60
2023-05-15T11:19:35.239Z,21.90
2023-05-15T11:22:16.230Z,22.10
2023-05-15T11:24:53.902Z,22.30
2023-05-15T11:27:28.321Z,22.40
2023-05-15T11:30:17.929Z,22.50
2023-05-15T11:33:01.311Z,22.70
2023-05-15T11:35:32.644Z,22.90
2023-05-15T11:38:03.583Z,23.10
2023-05-15T11:40:44.755Z,23.00
2023-05-15T11:43:19.714Z,23.00
2023-05-15T11:45:49.847Z,23.10
2023-05-15T11:48:18.562Z,23.10
2023-05-15T11:50:46.709Z,23.00
2023-05-15T11:53:15.415Z,22.80
2023-05-15T11:55:45.893Z,22.60
2023-05-15T11:58:15.454Z,22.50
2023-05-15T12:00:44.570Z,22.30
2023-05-15T12:03:20.393Z,22.20
2023-05-15T12:05:58.367Z,22.10
2023-05-15T12:08:31.668Z,22.10
2023-05-15T12:11:01.890Z,22.00
2023-05-15T12:13:30.545Z,22.00
2023-05-15T12:15:58.743Z,22.00
2023-05-15T12:18:26.586Z,22.00
2023-05-15T12:20:55.742Z,21.90
2023-05-15T12:23:25.401Z,21.90
2023-05-15T12:25:58.606Z,21.80
2023-05-15T12:28:28.325Z,21.70
2023-05-15T12:30:56.490Z,21.70
2023-05-15T12:33:24.799Z,21.60
2023-05-15T12:36:00.849Z,21.60
2023-05-15T12:38:29.454Z,21.60
2023-05-15T12:40:57.856Z,21.60
2023-05-15T12:43:27.985Z,21.50
2023-05-15T12:45:56.578Z,21.40
2023-05-15T12:48:24.877Z,21.40
2023-05-15T12:50:52.767Z,21.30
2023-05-15T12:53:23.117Z,21.30
2023-05-15T12:55:52.253Z,21.30
2023-05-15T12:58:20.941Z,21.30
2023-05-15T13:00:51.304Z,21.30
2023-05-15T13:03:22.176Z,21.30
2023-05-15T13:05:49.980Z,21.30
2023-05-15T13:08:19.096Z,21.30
2023-05-15T13:10:48.375Z,21.30
2023-05-15T13:13:17.377Z,21.30
2023-05-15T13:15:46.335Z,21.30
2023-05-15T13:18:17.069Z,21.30
2023-05-15T13:20:46.373Z,21.30
2023-05-15T13:23:16.024Z,21.30
2023-05-15T13:25:43.873Z,21.40
2023-05-15T13:28:12.433Z,21.40
2023-05-15T13:30:42.327Z,21.40
2023-05-15T13:33:10.722Z,21.40
2023-05-15T13:35:41.039Z,21.40
2023-05-15T13:38:11.349Z,21.40
2023-05-15T13:40:39.481Z,21.40
2023-05-15T13:43:09.253Z,21.60
2023-05-15T13:45:37.506Z,21.80
2023-05-15T13:48:05.956Z,21.90
2023-05-15T13:50:33.694Z,21.90
2023-05-15T13:53:02.938Z,21.90
2023-05-15T13:55:31.359Z,21.90
2023-05-15T13:57:59.382Z,21.90
2023-05-15T14:00:27.599Z,21.90
2023-05-15T14:02:55.424Z,22.00
2023-05-15T14:05:23.429Z,22.00
2023-05-15T14:07:51.164Z,22.10
2023-05-15T14:10:20.266Z,22.10
2023-05-15T14:12:47.977Z,22.10
2023-05-15T14:15:15.672Z,22.00
2023-05-15T14:17:44.012Z,21.80
2023-05-15T14:20:12.611Z,21.60
2023-05-15T14:22:41.281Z,21.60
2023-05-15T14:25:10.053Z,21.70
2023-05-15T14:27:39.085Z,21.80
2023-05-15T14:30:08.138Z,21.80
2023-05-15T14:32:35.934Z,21.80
2023-05-15T14:35:03.946Z,21.80
2023-05-15T14:37:31.687Z,21.70
2023-05-15T14:39:59.444Z,21.70
2023-05-15T14:42:27.820Z,21.60
2023-05-15T14:44:56.873Z,21.80
2023-05-15T14:47:25.281Z,21.80
2023-05-15T14:49:53.032Z,21.90
2023-05-15T14:52:20.791Z,22.10
2023-05-15T14:55:00.611Z,22.10
2023-05-15T14:57:36.436Z,22.10
2023-05-15T15:00:07.011Z,22.10
2023-05-15T15:02:35.216Z,22.00
2023-05-15T15:05:03.015Z,21.90
2023-05-15T15:07:31.037Z,21.70
2023-05-15T15:09:58.697Z,21.50
2023-05-15T15:12:26.789Z,21.30
2023-05-15T15:14:54.521Z,21.10
2023-05-15T15:17:23.576Z,20.90
2023-05-15T15:19:51.291Z,20.70
2023-05-15T15:22:18.968Z,20.60
2023-05-15T15:24:46.663Z,20.50
2023-05-15T15:27:14.324Z,20.40
2023-05-15T15:29:42.380Z,20.20
2023-05-15T15:32:10.087Z,20.00
2023-05-15T15:34:39.505Z,20.00
2023-05-15T15:37:07.301Z,19.90
2023-05-15T15:39:35.035Z,19.70
2023-05-15T15:42:05.108Z,19.60
2023-05-15T15:44:34.614Z,19.50
2023-05-15T15:47:02.287Z,19.40
2023-05-15T15:49:29.973Z,19.40
2023-05-15T15:51:59.102Z,19.40
2023-05-15T15:54:26.927Z,19.40
2023-05-15T15:56:54.598Z,19.40
2023-05-15T15:59:22.449Z,19.40
2023-05-15T16:01:50.243Z,19.40
2023-05-15T16:04:18.168Z,19.40
2023-05-15T16:06:46.274Z,19.40
2023-05-15T16:09:15.684Z,19.40
2023-05-15T16:11:43.348Z,19.50
2023-05-15T16:14:11.113Z,19.50
2023-05-15T16:16:38.865Z,19.50
2023-05-15T16:19:06.630Z,19.50
2023-05-15T16:21:36.154Z,19.50
2023-05-15T16:24:04.384Z,19.50
2023-05-15T16:26:33.759Z,19.40
2023-05-15T16:29:01.516Z,19.40
2023-05-15T16:31:29.241Z,19.40
2023-05-15T16:33:59.912Z,19.30
2023-05-15T16:36:29.248Z,19.20
2023-05-15T16:38:57.067Z,19.20
2023-05-15T16:41:26.342Z,19.20
2023-05-15T16:43:55.390Z,19.20
2023-05-15T16:46:23.102Z,19.10
2023-05-15T16:48:50.853Z,19.10
2023-05-15T16:51:18.618Z,19.00
2023-05-15T16:53:47.208Z,18.90
2023-05-15T16:56:14.960Z,18.70
2023-05-15T16:58:43.743Z,18.60
2023-05-15T17:01:14.882Z,18.50
2023-05-15T17:03:43.644Z,18.40
2023-05-15T17:06:11.562Z,18.30
2023-05-15T17:08:42.663Z,18.10
2023-05-15T17:11:11.798Z,18.00
2023-05-15T17:13:39.479Z,17.90
2023-05-15T17:16:08.760Z,17.80
2023-05-15T17:18:40.273Z,17.80
2023-05-15T17:21:09.424Z,17.80
2023-05-15T17:23:37.376Z,17.70
2023-05-15T17:26:05.387Z,17.70
2023-05-15T17:28:33.854Z,17.70
2023-05-15T17:31:02.012Z,17.60
2023-05-15T17:33:30.049Z,17.60
2023-05-15T17:35:59.052Z,17.50
2023-05-15T17:38:26.879Z,17.40
2023-05-15T17:40:56.184Z,17.30
2023-05-15T17:43:24.158Z,17.30
2023-05-15T17:45:51.909Z,17.20
2023-05-15T17:48:22.089Z,17.10
2023-05-15T17:50:49.774Z,17.10
2023-05-15T17:53:19.227Z,17.00
2023-05-15T17:55:47.694Z,16.90
2023-05-15T17:58:15.974Z,16.90
2023-05-15T18:00:44.451Z,16.70
2023-05-15T18:03:12.249Z,16.60
2023-05-15T18:05:40.080Z,16.40
2023-05-15T18:08:08.072Z,16.30
2023-05-15T18:10:37.284Z,16.10
2023-05-15T18:13:07.758Z,16.00
2023-05-15T18:15:36.214Z,15.90
2023-05-15T18:18:04.429Z,15.70
2023-05-15T18:20:32.277Z,15.60
2023-05-15T18:23:00.283Z,15.50
2023-05-15T18:25:28.203Z,15.40
2023-05-15T18:27:57.575Z,15.30
2023-05-15T18:30:26.497Z,15.10
2023-05-15T18:32:54.320Z,15.10
2023-05-15T18:35:22.055Z,14.90
2023-05-15T18:37:49.982Z,14.80
2023-05-15T18:40:20.103Z,14.70
2023-05-15T18:42:49.296Z,14.60
2023-05-15T18:45:22.103Z,14.50
2023-05-15T18:47:51.497Z,14.40
2023-05-15T18:50:25.957Z,14.30
2023-05-15T18:52:54.012Z,14.20
2023-05-15T18:55:24.761Z,14.10
2023-05-15T18:57:52.986Z,14.00
2023-05-15T19:00:34.036Z,13.90
2023-05-15T19:03:06.253Z,13.90
2023-05-15T19:05:34.545Z,13.80
2023-05-15T19:08:03.035Z,13.70
2023-05-15T19:10:32.935Z,13.70
2023-05-15T19:13:00.671Z,13.60
2023-05-15T19:15:30.208Z,13.60
2023-05-15T19:17:58.069Z,13.60
2023-05-15T19:20:27.836Z,13.50
2023-05-15T19:22:56.076Z,13.50
2023-05-15T19:25:24.022Z,13.50
2023-05-15T19:27:56.380Z,13.50
2023-05-15T19:30:25.545Z,13.60
2023-05-15T19:32:55.977Z,13.50
2023-05-15T19:35:26.175Z,13.50
2023-05-15T19:37:54.303Z,13.50
2023-05-15T19:40:22.315Z,13.50
2023-05-15T19:42:50.047Z,13.50
2023-05-15T19:45:20.066Z,13.50
2023-05-15T19:47:47.802Z,13.40
2023-05-15T19:50:17.958Z,13.40
2023-05-15T19:52:45.748Z,13.40
2023-05-15T19:55:13.643Z,13.30
2023-05-15T19:57:42.599Z,13.30
2023-05-15T20:00:12.298Z,13.20
2023-05-15T20:02:41.281Z,13.20
2023-05-15T20:05:09.967Z,13.20
2023-05-15T20:07:39.111Z,13.20
2023-05-15T20:10:10.346Z,13.10
2023-05-15T20:12:38.050Z,13.10
2023-05-15T20:15:06.872Z,13.10
2023-05-15T20:17:34.660Z,13.00
2023-05-15T20:20:02.438Z,13.00
2023-05-15T20:22:30.554Z,13.00
2023-05-15T20:24:59.626Z,13.00
2023-05-15T20:27:27.316Z,13.10
2023-05-15T20:29:55.280Z,13.00
2023-05-15T20:32:23.146Z,13.10
2023-05-15T20:34:51.983Z,13.10
2023-05-15T20:37:19.700Z,13.10
2023-05-15T20:39:47.410Z,13.20
2023-05-15T20:42:16.475Z,13.20
2023-05-15T20:44:44.436Z,13.20
2023-05-15T20:47:12.296Z,13.30
2023-05-15T20:49:39.994Z,13.30
2023-05-15T20:52:07.995Z,13.30
2023-05-15T20:54:35.778Z,13.30
2023-05-15T20:57:03.655Z,13.20
2023-05-15T20:59:33.321Z,13.20
2023-05-15T21:02:01.401Z,13.20
2023-05-15T21:04:29.991Z,13.10
2023-05-15T21:06:57.861Z,13.00
2023-05-15T21:09:25.679Z,13.00
2023-05-15T21:11:53.387Z,13.00
2023-05-15T21:14:21.102Z,13.00
2023-05-15T21:16:50.366Z,13.00
2023-05-15T21:19:18.214Z,13.00
2023-05-15T21:21:46.148Z,13.00
2023-05-15T21:24:13.865Z,13.00
2023-05-15T21:26:41.566Z,13.00
2023-05-15T21:29:09.911Z,13.00
2023-05-15T21:31:37.747Z,13.00
2023-05-15T21:34:06.886Z,13.00
2023-05-15T21:36:35.807Z,13.00
2023-05-15T21:39:04.452Z,13.00
2023-05-15T21:41:32.160Z,13.00
2023-05-15T21:43:59.896Z,13.00
2023-05-15T21:46:27.771Z,13.00
2023-05-15T21:48:55.501Z,13.00
2023-05-15T21:51:24.612Z,13.00
2023-05-15T21:53:52.375Z,12.90
2023-05-15T21:56:20.158Z,12.90
2023-05-15T21:58:47.953Z,12.90
2023-05-15T22:01:16.280Z,12.90
2023-05-15T22:03:44.198Z,12.90
2023-05-15T22:06:12.138Z,12.90
2023-05-15T22:08:41.289Z,12.90
2023-05-15T22:11:09.004Z,12.90
2023-05-15T22:13:36.832Z,12.90
2023-05-15T22:16:04.667Z,12.90
2023-05-15T22:18:32.387Z,12.80
2023-05-15T22:21:01.834Z,12.80
2023-05-15T22:23:29.651Z,12.90
2023-05-15T22:25:58.713Z,12.80
2023-05-15T22:28:26.481Z,12.80
2023-05-15T22:30:54.960Z,12.80
2023-05-15T22:33:24.383Z,12.80
2023-05-15T22:35:52.798Z,12.80
2023-05-15T22:38:20.649Z,12.80
2023-05-15T22:40:51.824Z,12.80
2023-05-15T22:43:21.446Z,12.70
2023-05-15T22:45:49.189Z,12.70
2023-05-15T22:48:16.995Z,12.70
2023-05-15T22:50:45.249Z,12.70
2023-05-15T22:53:12.922Z,12.70
2023-05-15T22:55:40.657Z,12.70
2023-05-15T22:58:08.520Z,12.80
2023-05-15T23:00:37.899Z,12.80
2023-05-15T23:03:06.845Z,12.70
2023-05-15T23:05:34.765Z,12.70
2023-05-15T23:08:02.467Z,12.70
2023-05-15T23:10:30.188Z,12.80
2023-05-15T23:12:58.154Z,12.80
2023-05-15T23:15:26.153Z,12.80
2023-05-15T23:17:55.347Z,12.80
2023-05-15T23:20:23.160Z,12.70
2023-05-15T23:22:50.940Z,12.80
2023-05-15T23:25:18.938Z,12.80
2023-05-15T23:27:46.693Z,12.80
2023-05-15T23:30:17.561Z,12.80
2023-05-15T23:32:45.654Z,12.80
2023-05-15T23:35:17.141Z,12.80
2023-05-15T23:37:44.914Z,12.80
2023-05-15T23:40:14.351Z,12.80
2023-05-15T23:42:42.020Z,12.70
2023-05-15T23:45:11.380Z,12.80
2023-05-15T23:47:39.551Z,12.70
2023-05-15T23:50:08.782Z,12.70
2023-05-15T23:52:38.036Z,12.70
2023-05-15T23:55:06.872Z,12.70
2023-05-15T23:57:34.564Z,12.70
